Harvey, AR

1:17 PM CDT on October 23, 2014 (GMT -0500)
Booneville Municipal Airport | Change Station
CLOSE
Current Station
Personal Weather Station
Location: Booneville, AR
Elevation: 460 ft
Nearby Weather Stations

Elev 460 ft 35.15 °N, 93.86 °W | Updated 16 minutes ago

Partly Cloudy
Partly Cloudy
63.6 °F
Feels Like 63.6 °F
N
4.0
Wind Variable Wind from ESE
Gusts 5.0 mph

Today
High -- | Low -- °F
--% Chance of Precip.
Yesterday
High -- | Low -- °F
Precip. -- in
7:27 AM 6:30 PM
Waning Crescent, 0% visible
Pressure 30.16 in
Visibility 10.0 miles
Clouds Clear
Dew Point 50 °F
Humidity 61%
Rainfall 0.00 in
Snow Depth Not available.
UV 6 out of 12
Pollen 3.70 out of 12
Air Quality Not available.
Flu Activity Sporadic
METAR KMWT 231753Z AUTO 00000KT 10SM CLR 17/09 A3016 RMK AO2 SLP213 T01720089 10172 20100 58012

More Conditions Fewer Conditions

Pressure 30.16 in
Visibility 10.0 miles
Clouds Clear
Dew Point 50 °F
Humidity 61%
Rainfall 0.00 in
Snow Depth Not available.
UV 6 out of 12
Pollen 3.70 out of 12
Air Quality Not available.
Flu Activity Sporadic
METAR KMWT 231753Z AUTO 00000KT 10SM CLR 17/09 A3016 RMK AO2 SLP213 T01720089 10172 20100 58012

More Conditions Fewer Conditions

10-Day Weather Forecast

Almanac

Astronomy

Oct. 23, 2014 Rise Set
Actual Time 7:27 AM CDT 6:30 PM CDT
Civil Twilight 7:01 AM CDT 6:56 PM CDT
Nautical Twilight 6:32 AM CDT 7:25 PM CDT
Astronomical Twilight 6:03 AM CDT 7:55 PM CDT
Moon 7:08 AM CDT 6:32 PM CDT
Length of Visible Light 11h 54m
Length of Day
11h 02m
Tomorrow will be 2m 1s shorter.
Waning Crescent, 0% of the Moon is Illuminated
Today
Waning Crescent
Oct 23
New
Oct 30
First Quarter
Nov 6
Full
Nov 14
Last Quarter

Today's Extremes

State Highs State Lows

Community

WunderPhotos

Upload Photos

1,764,333 photos uploaded!

WunderBlogs® & News

Nearby

Snow Depth

Station Depth Elevation
No new snow has been reported.

Earthquake Activity

City Distance Mag. Time & Date
No recent earthquake activity has been reported nearby.
Minimum magnitude displayed is 2.5.

Coastal Water Temperatures

Place Temperature
No Stations Reporting

Nearby Weather Stations